sensor_id;sensor_type;location;lat;lon;timestamp;pressure;altitude;pressure_sealevel;temperature;humidity
60874;BME280;46715;40.642;-7.920;2023-03-03T00:01:58;96645.00;;;4.29;61.82
60874;BME280;46715;40.642;-7.920;2023-03-03T00:03:59;96646.09;;;4.21;62.60
60874;BME280;46715;40.642;-7.920;2023-03-03T00:06:02;96645.94;;;4.16;62.22
60874;BME280;46715;40.642;-7.920;2023-03-03T00:08:04;96647.38;;;4.12;62.74
60874;BME280;46715;40.642;-7.920;2023-03-03T00:10:05;96645.66;;;4.05;62.72
60874;BME280;46715;40.642;-7.920;2023-03-03T00:12:26;96646.28;;;4.01;62.78
60874;BME280;46715;40.642;-7.920;2023-03-03T00:14:29;96643.38;;;3.97;63.30
60874;BME280;46715;40.642;-7.920;2023-03-03T00:16:34;96643.50;;;4.02;64.01
60874;BME280;46715;40.642;-7.920;2023-03-03T00:18:40;96643.66;;;4.07;63.40
60874;BME280;46715;40.642;-7.920;2023-03-03T00:20:56;96639.69;;;4.05;63.70
60874;BME280;46715;40.642;-7.920;2023-03-03T00:23:12;96640.06;;;3.90;63.10
60874;BME280;46715;40.642;-7.920;2023-03-03T00:27:30;96641.56;;;3.79;63.38
60874;BME280;46715;40.642;-7.920;2023-03-03T00:29:40;96641.19;;;3.75;63.43
60874;BME280;46715;40.642;-7.920;2023-03-03T00:31:45;96641.84;;;3.71;63.55
60874;BME280;46715;40.642;-7.920;2023-03-03T00:33:48;96634.31;;;3.69;63.42
60874;BME280;46715;40.642;-7.920;2023-03-03T00:35:55;96635.47;;;3.73;63.24
60874;BME280;46715;40.642;-7.920;2023-03-03T00:37:59;96635.09;;;3.70;63.46
60874;BME280;46715;40.642;-7.920;2023-03-03T00:40:15;96633.53;;;3.69;63.29
60874;BME280;46715;40.642;-7.920;2023-03-03T00:42:20;96630.59;;;3.65;63.81
60874;BME280;46715;40.642;-7.920;2023-03-03T00:46:43;96623.03;;;3.64;63.54
60874;BME280;46715;40.642;-7.920;2023-03-03T00:48:44;96622.25;;;3.63;63.73
60874;BME280;46715;40.642;-7.920;2023-03-03T00:50:46;96619.25;;;3.66;63.48
60874;BME280;46715;40.642;-7.920;2023-03-03T00:53:03;96617.75;;;3.77;63.17
60874;BME280;46715;40.642;-7.920;2023-03-03T00:55:06;96622.94;;;3.96;62.10
60874;BME280;46715;40.642;-7.920;2023-03-03T00:57:07;96617.91;;;4.01;61.88
60874;BME280;46715;40.642;-7.920;2023-03-03T00:59:10;96617.28;;;4.05;62.00
60874;BME280;46715;40.642;-7.920;2023-03-03T01:01:10;96619.28;;;4.03;61.71
60874;BME280;46715;40.642;-7.920;2023-03-03T01:03:20;96619.88;;;4.05;61.53
60874;BME280;46715;40.642;-7.920;2023-03-03T01:05:21;96618.06;;;4.06;61.31
60874;BME280;46715;40.642;-7.920;2023-03-03T01:07:24;96610.69;;;4.09;61.21
60874;BME280;46715;40.642;-7.920;2023-03-03T01:09:25;96606.66;;;4.14;60.80
60874;BME280;46715;40.642;-7.920;2023-03-03T01:11:27;96608.66;;;4.12;60.57
60874;BME280;46715;40.642;-7.920;2023-03-03T01:13:31;96603.50;;;4.12;60.95
60874;BME280;46715;40.642;-7.920;2023-03-03T01:15:32;96597.41;;;4.06;60.61
60874;BME280;46715;40.642;-7.920;2023-03-03T01:17:33;96606.38;;;4.03;60.68
60874;BME280;46715;40.642;-7.920;2023-03-03T01:19:34;96601.28;;;3.97;60.34
60874;BME280;46715;40.642;-7.920;2023-03-03T01:21:35;96604.97;;;3.89;61.22
60874;BME280;46715;40.642;-7.920;2023-03-03T01:23:36;96601.63;;;3.82;61.09
60874;BME280;46715;40.642;-7.920;2023-03-03T01:25:37;96595.56;;;3.76;60.67
60874;BME280;46715;40.642;-7.920;2023-03-03T01:27:39;96595.00;;;3.74;61.52
60874;BME280;46715;40.642;-7.920;2023-03-03T01:29:39;96601.34;;;3.71;61.97
60874;BME280;46715;40.642;-7.920;2023-03-03T01:31:40;96589.97;;;3.61;61.72
60874;BME280;46715;40.642;-7.920;2023-03-03T01:33:41;96593.84;;;3.51;61.83
60874;BME280;46715;40.642;-7.920;2023-03-03T01:35:44;96590.31;;;3.46;61.66
60874;BME280;46715;40.642;-7.920;2023-03-03T01:37:45;96586.44;;;3.55;62.08
60874;BME280;46715;40.642;-7.920;2023-03-03T01:39:49;96583.69;;;3.75;61.29
60874;BME280;46715;40.642;-7.920;2023-03-03T01:41:50;96575.72;;;3.77;60.80
60874;BME280;46715;40.642;-7.920;2023-03-03T01:43:51;96579.06;;;3.77;61.24
60874;BME280;46715;40.642;-7.920;2023-03-03T01:48:08;96575.34;;;3.73;61.56
60874;BME280;46715;40.642;-7.920;2023-03-03T01:50:14;96573.66;;;3.67;61.67
60874;BME280;46715;40.642;-7.920;2023-03-03T01:52:28;96574.06;;;3.64;62.08
60874;BME280;46715;40.642;-7.920;2023-03-03T01:54:41;96570.19;;;3.54;62.19
60874;BME280;46715;40.642;-7.920;2023-03-03T01:56:44;96566.41;;;3.57;62.08
60874;BME280;46715;40.642;-7.920;2023-03-03T01:58:59;96567.06;;;3.71;61.18
60874;BME280;46715;40.642;-7.920;2023-03-03T02:01:08;96555.00;;;3.65;61.14
60874;BME280;46715;40.642;-7.920;2023-03-03T02:03:10;96559.59;;;3.63;61.41
60874;BME280;46715;40.642;-7.920;2023-03-03T02:05:12;96557.88;;;3.56;61.67
60874;BME280;46715;40.642;-7.920;2023-03-03T02:07:14;96556.94;;;3.51;62.25
60874;BME280;46715;40.642;-7.920;2023-03-03T02:11:43;96556.00;;;3.45;61.74
60874;BME280;46715;40.642;-7.920;2023-03-03T02:13:44;96555.50;;;3.36;61.59
60874;BME280;46715;40.642;-7.920;2023-03-03T02:15:45;96550.97;;;3.32;62.21
60874;BME280;46715;40.642;-7.920;2023-03-03T02:17:47;96560.78;;;3.23;62.49
60874;BME280;46715;40.642;-7.920;2023-03-03T02:21:51;96555.59;;;3.04;62.97
60874;BME280;46715;40.642;-7.920;2023-03-03T02:24:02;96559.00;;;2.98;63.14
60874;BME280;46715;40.642;-7.920;2023-03-03T02:26:14;96557.28;;;2.92;63.06
60874;BME280;46715;40.642;-7.920;2023-03-03T02:28:16;96551.13;;;2.93;63.46
60874;BME280;46715;40.642;-7.920;2023-03-03T02:30:20;96550.19;;;2.87;63.95
60874;BME280;46715;40.642;-7.920;2023-03-03T02:32:23;96548.81;;;2.85;64.18
60874;BME280;46715;40.642;-7.920;2023-03-03T02:34:25;96551.00;;;2.81;64.24
60874;BME280;46715;40.642;-7.920;2023-03-03T02:36:35;96545.28;;;2.79;64.54
60874;BME280;46715;40.642;-7.920;2023-03-03T02:39:04;96540.75;;;2.75;64.40
60874;BME280;46715;40.642;-7.920;2023-03-03T02:43:32;96536.81;;;2.72;64.93
60874;BME280;46715;40.642;-7.920;2023-03-03T02:45:43;96535.38;;;2.76;64.91
60874;BME280;46715;40.642;-7.920;2023-03-03T02:47:49;96529.84;;;2.79;65.39
60874;BME280;46715;40.642;-7.920;2023-03-03T02:49:51;96523.09;;;2.78;64.70
60874;BME280;46715;40.642;-7.920;2023-03-03T02:51:53;96529.19;;;2.84;65.53
60874;BME280;46715;40.642;-7.920;2023-03-03T02:53:54;96518.91;;;2.84;65.15
60874;BME280;46715;40.642;-7.920;2023-03-03T02:55:55;96521.69;;;2.82;65.15
60874;BME280;46715;40.642;-7.920;2023-03-03T02:57:56;96513.38;;;2.80;64.77
60874;BME280;46715;40.642;-7.920;2023-03-03T02:59:59;96518.16;;;2.77;64.87
60874;BME280;46715;40.642;-7.920;2023-03-03T03:02:00;96523.94;;;2.72;65.19
60874;BME280;46715;40.642;-7.920;2023-03-03T03:04:08;96523.75;;;2.73;64.96
60874;BME280;46715;40.642;-7.920;2023-03-03T03:06:09;96526.94;;;2.69;65.04
60874;BME280;46715;40.642;-7.920;2023-03-03T03:08:10;96517.00;;;2.72;64.89
60874;BME280;46715;40.642;-7.920;2023-03-03T03:10:11;96512.63;;;2.73;64.75
60874;BME280;46715;40.642;-7.920;2023-03-03T03:12:14;96522.16;;;2.72;64.34
60874;BME280;46715;40.642;-7.920;2023-03-03T03:14:18;96514.44;;;2.72;64.26
60874;BME280;46715;40.642;-7.920;2023-03-03T03:16:19;96504.19;;;2.66;64.98
60874;BME280;46715;40.642;-7.920;2023-03-03T03:18:20;96508.13;;;2.68;65.16
60874;BME280;46715;40.642;-7.920;2023-03-03T03:20:23;96502.75;;;2.70;65.28
60874;BME280;46715;40.642;-7.920;2023-03-03T03:22:24;96508.47;;;2.72;65.62
60874;BME280;46715;40.642;-7.920;2023-03-03T03:24:25;96501.50;;;2.79;65.48
60874;BME280;46715;40.642;-7.920;2023-03-03T03:26:31;96497.69;;;2.82;65.46
60874;BME280;46715;40.642;-7.920;2023-03-03T03:28:32;96493.78;;;2.79;64.84
60874;BME280;46715;40.642;-7.920;2023-03-03T03:30:34;96499.16;;;2.78;65.35
60874;BME280;46715;40.642;-7.920;2023-03-03T03:32:36;96495.41;;;2.73;65.66
60874;BME280;46715;40.642;-7.920;2023-03-03T03:34:37;96502.34;;;2.73;64.76
60874;BME280;46715;40.642;-7.920;2023-03-03T03:36:39;96499.41;;;2.69;65.08
60874;BME280;46715;40.642;-7.920;2023-03-03T03:38:40;96486.81;;;2.61;65.21
60874;BME280;46715;40.642;-7.920;2023-03-03T03:40:43;96494.09;;;2.64;65.63
60874;BME280;46715;40.642;-7.920;2023-03-03T03:42:44;96489.50;;;2.66;65.71
60874;BME280;46715;40.642;-7.920;2023-03-03T03:44:47;96492.94;;;2.60;65.82
60874;BME280;46715;40.642;-7.920;2023-03-03T03:46:48;96489.16;;;2.63;65.58
60874;BME280;46715;40.642;-7.920;2023-03-03T03:48:49;96495.50;;;2.60;65.88
60874;BME280;46715;40.642;-7.920;2023-03-03T03:50:53;96488.22;;;2.57;65.52
60874;BME280;46715;40.642;-7.920;2023-03-03T03:52:55;96487.84;;;2.53;65.95
60874;BME280;46715;40.642;-7.920;2023-03-03T03:54:56;96482.13;;;2.51;66.35
60874;BME280;46715;40.642;-7.920;2023-03-03T03:56:58;96486.25;;;2.52;66.20
60874;BME280;46715;40.642;-7.920;2023-03-03T03:59:00;96482.13;;;2.51;66.64
60874;BME280;46715;40.642;-7.920;2023-03-03T04:01:03;96474.59;;;2.50;66.49
60874;BME280;46715;40.642;-7.920;2023-03-03T04:03:05;96485.69;;;2.50;66.82
60874;BME280;46715;40.642;-7.920;2023-03-03T04:05:06;96477.59;;;2.47;66.64
60874;BME280;46715;40.642;-7.920;2023-03-03T04:07:07;96480.78;;;2.42;66.17
60874;BME280;46715;40.642;-7.920;2023-03-03T04:09:10;96483.59;;;2.41;66.37
60874;BME280;46715;40.642;-7.920;2023-03-03T04:11:10;96474.06;;;2.41;66.88
60874;BME280;46715;40.642;-7.920;2023-03-03T04:13:12;96475.66;;;2.42;66.81
60874;BME280;46715;40.642;-7.920;2023-03-03T04:15:13;96479.38;;;2.46;67.10
60874;BME280;46715;40.642;-7.920;2023-03-03T04:17:17;96477.38;;;2.48;67.08
60874;BME280;46715;40.642;-7.920;2023-03-03T04:19:18;96475.59;;;2.49;66.43
60874;BME280;46715;40.642;-7.920;2023-03-03T04:21:19;96481.53;;;2.49;66.75
60874;BME280;46715;40.642;-7.920;2023-03-03T04:23:20;96480.16;;;2.47;67.01
60874;BME280;46715;40.642;-7.920;2023-03-03T04:25:22;96478.44;;;2.41;67.42
60874;BME280;46715;40.642;-7.920;2023-03-03T04:27:24;96477.28;;;2.36;67.22
60874;BME280;46715;40.642;-7.920;2023-03-03T04:29:24;96482.41;;;2.36;67.23
60874;BME280;46715;40.642;-7.920;2023-03-03T04:31:25;96482.84;;;2.33;67.28
60874;BME280;46715;40.642;-7.920;2023-03-03T04:33:27;96481.06;;;2.34;67.80
60874;BME280;46715;40.642;-7.920;2023-03-03T04:35:28;96481.25;;;2.32;67.48
60874;BME280;46715;40.642;-7.920;2023-03-03T04:37:30;96482.97;;;2.38;67.66
60874;BME280;46715;40.642;-7.920;2023-03-03T04:39:31;96480.19;;;2.40;67.75
60874;BME280;46715;40.642;-7.920;2023-03-03T04:41:32;96480.41;;;2.38;67.45
60874;BME280;46715;40.642;-7.920;2023-03-03T04:43:33;96482.59;;;2.42;67.47
60874;BME280;46715;40.642;-7.920;2023-03-03T04:45:35;96480.78;;;2.42;67.67
60874;BME280;46715;40.642;-7.920;2023-03-03T04:47:36;96481.00;;;2.41;67.91
60874;BME280;46715;40.642;-7.920;2023-03-03T04:49:38;96477.44;;;2.42;67.93
60874;BME280;46715;40.642;-7.920;2023-03-03T04:51:39;96482.59;;;2.42;67.90
60874;BME280;46715;40.642;-7.920;2023-03-03T04:53:40;96483.38;;;2.42;67.42
60874;BME280;46715;40.642;-7.920;2023-03-03T04:55:43;96488.94;;;2.39;67.59
60874;BME280;46715;40.642;-7.920;2023-03-03T04:57:44;96472.56;;;2.33;67.85
60874;BME280;46715;40.642;-7.920;2023-03-03T04:59:45;96478.31;;;2.29;68.10
60874;BME280;46715;40.642;-7.920;2023-03-03T05:01:46;96475.78;;;2.22;67.46
60874;BME280;46715;40.642;-7.920;2023-03-03T05:03:48;96475.97;;;2.20;68.14
60874;BME280;46715;40.642;-7.920;2023-03-03T05:05:49;96484.28;;;2.22;67.93
60874;BME280;46715;40.642;-7.920;2023-03-03T05:07:50;96482.50;;;2.23;67.62
60874;BME280;46715;40.642;-7.920;2023-03-03T05:09:51;96484.28;;;2.22;67.46
60874;BME280;46715;40.642;-7.920;2023-03-03T05:11:52;96479.72;;;2.25;67.64
60874;BME280;46715;40.642;-7.920;2023-03-03T05:13:53;96482.66;;;2.28;67.83
60874;BME280;46715;40.642;-7.920;2023-03-03T05:15:55;96474.94;;;2.28;67.55
60874;BME280;46715;40.642;-7.920;2023-03-03T05:17:56;96478.69;;;2.32;67.42
60874;BME280;46715;40.642;-7.920;2023-03-03T05:19:57;96485.78;;;2.37;67.08
60874;BME280;46715;40.642;-7.920;2023-03-03T05:22:04;96483.25;;;2.30;67.91
60874;BME280;46715;40.642;-7.920;2023-03-03T05:24:05;96485.06;;;2.23;67.85
60874;BME280;46715;40.642;-7.920;2023-03-03T05:26:06;96478.81;;;2.12;68.20
60874;BME280;46715;40.642;-7.920;2023-03-03T05:28:08;96486.16;;;2.09;67.58
60874;BME280;46715;40.642;-7.920;2023-03-03T05:30:10;96481.38;;;2.12;68.07
60874;BME280;46715;40.642;-7.920;2023-03-03T05:32:11;96483.34;;;2.17;68.10
60874;BME280;46715;40.642;-7.920;2023-03-03T05:34:12;96484.97;;;2.11;68.57
60874;BME280;46715;40.642;-7.920;2023-03-03T05:36:13;96487.34;;;2.06;68.49
60874;BME280;46715;40.642;-7.920;2023-03-03T05:38:14;96482.25;;;1.99;68.43
60874;BME280;46715;40.642;-7.920;2023-03-03T05:40:14;96486.59;;;1.99;68.83
60874;BME280;46715;40.642;-7.920;2023-03-03T05:42:16;96491.75;;;1.99;68.75
60874;BME280;46715;40.642;-7.920;2023-03-03T05:44:16;96488.78;;;1.95;68.31
60874;BME280;46715;40.642;-7.920;2023-03-03T05:46:17;96487.44;;;1.86;68.55
60874;BME280;46715;40.642;-7.920;2023-03-03T05:48:18;96496.56;;;1.82;68.59
60874;BME280;46715;40.642;-7.920;2023-03-03T05:50:22;96495.59;;;1.76;69.29
60874;BME280;46715;40.642;-7.920;2023-03-03T05:52:23;96491.84;;;1.72;69.63
60874;BME280;46715;40.642;-7.920;2023-03-03T05:54:25;96494.84;;;1.69;69.12
60874;BME280;46715;40.642;-7.920;2023-03-03T05:56:26;96495.81;;;1.68;69.86
60874;BME280;46715;40.642;-7.920;2023-03-03T05:58:27;96506.09;;;1.68;69.84
60874;BME280;46715;40.642;-7.920;2023-03-03T06:00:28;96513.44;;;1.71;69.92
60874;BME280;46715;40.642;-7.920;2023-03-03T06:02:29;96511.03;;;1.76;70.62
60874;BME280;46715;40.642;-7.920;2023-03-03T06:04:29;96514.00;;;1.80;70.04
60874;BME280;46715;40.642;-7.920;2023-03-03T06:06:30;96506.47;;;1.85;69.68
60874;BME280;46715;40.642;-7.920;2023-03-03T06:08:31;96509.00;;;1.92;69.91
60874;BME280;46715;40.642;-7.920;2023-03-03T06:10:32;96508.94;;;1.98;69.41
60874;BME280;46715;40.642;-7.920;2023-03-03T06:12:37;96516.03;;;2.10;69.12
60874;BME280;46715;40.642;-7.920;2023-03-03T06:14:38;96509.06;;;2.17;69.50
60874;BME280;46715;40.642;-7.920;2023-03-03T06:16:39;96515.72;;;2.25;69.21
60874;BME280;46715;40.642;-7.920;2023-03-03T06:18:40;96510.75;;;2.30;67.48
60874;BME280;46715;40.642;-7.920;2023-03-03T06:20:40;96514.97;;;2.24;67.39
60874;BME280;46715;40.642;-7.920;2023-03-03T06:22:41;96510.63;;;2.18;67.15
60874;BME280;46715;40.642;-7.920;2023-03-03T06:24:42;96510.88;;;2.10;67.37
60874;BME280;46715;40.642;-7.920;2023-03-03T06:26:43;96510.75;;;1.98;67.69
60874;BME280;46715;40.642;-7.920;2023-03-03T06:28:43;96509.38;;;1.95;67.85
60874;BME280;46715;40.642;-7.920;2023-03-03T06:30:44;96510.56;;;1.93;68.63
60874;BME280;46715;40.642;-7.920;2023-03-03T06:32:45;96508.94;;;1.98;68.86
60874;BME280;46715;40.642;-7.920;2023-03-03T06:34:47;96508.50;;;2.08;68.58
60874;BME280;46715;40.642;-7.920;2023-03-03T06:36:48;96500.97;;;2.13;68.37
60874;BME280;46715;40.642;-7.920;2023-03-03T06:38:49;96507.50;;;2.09;68.33
60874;BME280;46715;40.642;-7.920;2023-03-03T06:40:49;96506.34;;;2.05;68.42
60874;BME280;46715;40.642;-7.920;2023-03-03T06:42:51;96505.38;;;1.99;68.22
60874;BME280;46715;40.642;-7.920;2023-03-03T06:44:51;96502.06;;;1.92;68.31
60874;BME280;46715;40.642;-7.920;2023-03-03T06:46:52;96503.06;;;1.84;68.32
60874;BME280;46715;40.642;-7.920;2023-03-03T06:48:53;96505.69;;;1.78;68.83
60874;BME280;46715;40.642;-7.920;2023-03-03T06:50:54;96509.63;;;1.80;69.49
60874;BME280;46715;40.642;-7.920;2023-03-03T06:53:09;96514.19;;;1.78;69.58
60874;BME280;46715;40.642;-7.920;2023-03-03T06:55:12;96517.53;;;1.85;69.33
60874;BME280;46715;40.642;-7.920;2023-03-03T06:57:22;96517.28;;;1.94;70.08
60874;BME280;46715;40.642;-7.920;2023-03-03T06:59:26;96518.47;;;1.91;70.04
60874;BME280;46715;40.642;-7.920;2023-03-03T07:01:31;96512.69;;;2.02;69.60
60874;BME280;46715;40.642;-7.920;2023-03-03T07:03:34;96520.72;;;2.19;69.63
60874;BME280;46715;40.642;-7.920;2023-03-03T07:05:35;96519.13;;;2.25;69.58
60874;BME280;46715;40.642;-7.920;2023-03-03T07:07:36;96518.50;;;2.23;68.99
60874;BME280;46715;40.642;-7.920;2023-03-03T07:09:37;96518.16;;;2.19;68.48
60874;BME280;46715;40.642;-7.920;2023-03-03T07:11:37;96519.97;;;2.12;69.18
60874;BME280;46715;40.642;-7.920;2023-03-03T07:13:45;96517.63;;;2.04;68.92
60874;BME280;46715;40.642;-7.920;2023-03-03T07:15:48;96524.56;;;2.03;68.77
60874;BME280;46715;40.642;-7.920;2023-03-03T07:17:54;96524.97;;;2.00;69.11
60874;BME280;46715;40.642;-7.920;2023-03-03T07:19:55;96527.75;;;1.99;68.80
60874;BME280;46715;40.642;-7.920;2023-03-03T07:21:56;96538.25;;;1.97;68.32
60874;BME280;46715;40.642;-7.920;2023-03-03T07:24:26;96540.00;;;1.97;68.96
60874;BME280;46715;40.642;-7.920;2023-03-03T07:26:29;96541.22;;;1.94;69.02
60874;BME280;46715;40.642;-7.920;2023-03-03T07:28:32;96536.06;;;1.94;68.53
60874;BME280;46715;40.642;-7.920;2023-03-03T07:30:33;96542.59;;;1.97;68.59
60874;BME280;46715;40.642;-7.920;2023-03-03T07:32:39;96553.47;;;1.99;68.63
60874;BME280;46715;40.642;-7.920;2023-03-03T07:34:45;96548.66;;;2.09;69.67
60874;BME280;46715;40.642;-7.920;2023-03-03T07:36:53;96552.69;;;2.37;69.66
60874;BME280;46715;40.642;-7.920;2023-03-03T07:39:03;96561.69;;;2.85;67.98
60874;BME280;46715;40.642;-7.920;2023-03-03T07:41:17;96553.16;;;3.53;66.74
60874;BME280;46715;40.642;-7.920;2023-03-03T07:43:42;96556.06;;;4.55;65.54
60874;BME280;46715;40.642;-7.920;2023-03-03T07:45:47;96558.41;;;6.22;61.96
60874;BME280;46715;40.642;-7.920;2023-03-03T07:47:48;96567.09;;;7.47;58.04
60874;BME280;46715;40.642;-7.920;2023-03-03T07:49:50;96553.31;;;8.35;54.62
60874;BME280;46715;40.642;-7.920;2023-03-03T07:51:54;96559.22;;;9.17;52.50
60874;BME280;46715;40.642;-7.920;2023-03-03T07:54:16;96560.84;;;10.45;48.86
60874;BME280;46715;40.642;-7.920;2023-03-03T07:58:38;96557.66;;;12.32;44.87
60874;BME280;46715;40.642;-7.920;2023-03-03T08:03:19;96550.38;;;13.81;41.79
60874;BME280;46715;40.642;-7.920;2023-03-03T08:05:37;96551.94;;;14.44;40.16
60874;BME280;46715;40.642;-7.920;2023-03-03T08:07:39;96549.19;;;15.07;38.43
60874;BME280;46715;40.642;-7.920;2023-03-03T08:14:12;96549.25;;;16.18;35.67
60874;BME280;46715;40.642;-7.920;2023-03-03T08:18:22;96542.63;;;17.34;33.44
60874;BME280;46715;40.642;-7.920;2023-03-03T08:22:38;96541.81;;;18.75;31.62
60874;BME280;46715;40.642;-7.920;2023-03-03T08:24:39;96524.19;;;19.23;30.66
60874;BME280;46715;40.642;-7.920;2023-03-03T08:26:40;96529.50;;;19.53;29.87
60874;BME280;46715;40.642;-7.920;2023-03-03T08:28:41;96524.19;;;19.91;29.31
60874;BME280;46715;40.642;-7.920;2023-03-03T08:30:42;96527.72;;;20.47;29.39
60874;BME280;46715;40.642;-7.920;2023-03-03T08:32:43;96517.28;;;20.96;27.92
60874;BME280;46715;40.642;-7.920;2023-03-03T08:34:44;96515.38;;;21.42;27.00
60874;BME280;46715;40.642;-7.920;2023-03-03T08:36:45;96513.09;;;21.66;26.77
60874;BME280;46715;40.642;-7.920;2023-03-03T08:38:46;96514.97;;;21.77;26.88
60874;BME280;46715;40.642;-7.920;2023-03-03T08:40:48;96505.78;;;21.87;26.41
60874;BME280;46715;40.642;-7.920;2023-03-03T08:42:49;96513.28;;;21.98;26.41
60874;BME280;46715;40.642;-7.920;2023-03-03T08:44:50;96519.06;;;22.28;26.17
60874;BME280;46715;40.642;-7.920;2023-03-03T08:46:50;96514.47;;;22.12;25.47
60874;BME280;46715;40.642;-7.920;2023-03-03T08:49:07;96515.41;;;22.33;25.45
60874;BME280;46715;40.642;-7.920;2023-03-03T08:51:45;96510.88;;;22.90;24.31
60874;BME280;46715;40.642;-7.920;2023-03-03T08:53:45;96509.78;;;23.07;24.21
60874;BME280;46715;40.642;-7.920;2023-03-03T08:55:46;96503.69;;;23.54;23.47
60874;BME280;46715;40.642;-7.920;2023-03-03T08:57:47;96506.25;;;23.82;22.47
60874;BME280;46715;40.642;-7.920;2023-03-03T08:59:48;96510.84;;;23.18;23.34
60874;BME280;46715;40.642;-7.920;2023-03-03T09:01:49;96505.84;;;23.17;23.34
60874;BME280;46715;40.642;-7.920;2023-03-03T09:03:50;96507.91;;;23.07;23.29
60874;BME280;46715;40.642;-7.920;2023-03-03T09:05:50;96515.03;;;23.03;23.75
60874;BME280;46715;40.642;-7.920;2023-03-03T09:07:53;96511.03;;;23.25;22.98
60874;BME280;46715;40.642;-7.920;2023-03-03T09:09:54;96511.38;;;22.79;23.42
60874;BME280;46715;40.642;-7.920;2023-03-03T09:12:02;96505.47;;;22.42;23.78
60874;BME280;46715;40.642;-7.920;2023-03-03T09:14:11;96517.41;;;21.83;24.39
60874;BME280;46715;40.642;-7.920;2023-03-03T09:16:14;96518.72;;;21.89;24.44
60874;BME280;46715;40.642;-7.920;2023-03-03T09:18:19;96518.81;;;22.45;23.88
60874;BME280;46715;40.642;-7.920;2023-03-03T09:20:44;96510.78;;;22.42;23.35
60874;BME280;46715;40.642;-7.920;2023-03-03T09:22:45;96512.84;;;21.83;24.10
60874;BME280;46715;40.642;-7.920;2023-03-03T09:24:49;96509.06;;;21.47;24.52
60874;BME280;46715;40.642;-7.920;2023-03-03T09:26:54;96511.22;;;21.54;24.16
60874;BME280;46715;40.642;-7.920;2023-03-03T09:29:29;96523.31;;;22.17;23.99
60874;BME280;46715;40.642;-7.920;2023-03-03T09:31:33;96510.66;;;22.67;23.04
60874;BME280;46715;40.642;-7.920;2023-03-03T09:33:44;96513.84;;;22.44;24.08
60874;BME280;46715;40.642;-7.920;2023-03-03T09:35:53;96516.47;;;22.16;22.69
60874;BME280;46715;40.642;-7.920;2023-03-03T09:37:55;96520.66;;;21.18;24.57
60874;BME280;46715;40.642;-7.920;2023-03-03T09:39:56;96515.19;;;21.72;23.92
60874;BME280;46715;40.642;-7.920;2023-03-03T10:09:55;96512.34;;;19.98;25.11
60874;BME280;46715;40.642;-7.920;2023-03-03T10:12:22;96511.00;;;20.67;24.06
60874;BME280;46715;40.642;-7.920;2023-03-03T10:14:35;96515.03;;;20.52;24.74
60874;BME280;46715;40.642;-7.920;2023-03-03T10:19:02;96508.88;;;18.72;26.01
60874;BME280;46715;40.642;-7.920;2023-03-03T10:25:34;96511.69;;;15.90;30.25
60874;BME280;46715;40.642;-7.920;2023-03-03T10:30:06;96511.00;;;15.70;31.23
60874;BME280;46715;40.642;-7.920;2023-03-03T10:39:00;96514.69;;;15.13;31.82
60874;BME280;46715;40.642;-7.920;2023-03-03T10:41:25;96514.69;;;15.13;32.90
60874;BME280;46715;40.642;-7.920;2023-03-03T10:55:41;96499.88;;;15.04;32.81
60874;BME280;46715;40.642;-7.920;2023-03-03T11:02:31;96492.97;;;14.94;33.21
60874;BME280;46715;40.642;-7.920;2023-03-03T11:07:34;96486.81;;;14.85;32.96
60874;BME280;46715;40.642;-7.920;2023-03-03T11:19:29;96486.47;;;15.05;31.35
60874;BME280;46715;40.642;-7.920;2023-03-03T11:24:41;96481.31;;;15.42;28.81
60874;BME280;46715;40.642;-7.920;2023-03-03T11:26:59;96486.94;;;15.63;29.63
60874;BME280;46715;40.642;-7.920;2023-03-03T11:31:49;96479.38;;;16.26;28.98
60874;BME280;46715;40.642;-7.920;2023-03-03T11:36:24;96474.88;;;16.26;27.60
60874;BME280;46715;40.642;-7.920;2023-03-03T11:38:43;96464.53;;;16.52;26.79
60874;BME280;46715;40.642;-7.920;2023-03-03T11:41:02;96464.50;;;16.75;26.71
60874;BME280;46715;40.642;-7.920;2023-03-03T11:43:29;96462.03;;;17.01;26.76
60874;BME280;46715;40.642;-7.920;2023-03-03T11:45:45;96474.94;;;16.35;26.87
60874;BME280;46715;40.642;-7.920;2023-03-03T11:47:58;96463.84;;;16.69;27.70
60874;BME280;46715;40.642;-7.920;2023-03-03T11:50:09;96463.72;;;16.97;27.72
60874;BME280;46715;40.642;-7.920;2023-03-03T11:52:42;96470.97;;;15.73;27.98
60874;BME280;46715;40.642;-7.920;2023-03-03T11:56:53;96461.13;;;15.93;29.09
60874;BME280;46715;40.642;-7.920;2023-03-03T11:59:08;96458.91;;;15.86;28.78
60874;BME280;46715;40.642;-7.920;2023-03-03T12:01:52;96451.84;;;16.32;28.56
60874;BME280;46715;40.642;-7.920;2023-03-03T12:04:13;96446.78;;;16.35;27.01
60874;BME280;46715;40.642;-7.920;2023-03-03T12:06:51;96434.63;;;16.26;26.78
60874;BME280;46715;40.642;-7.920;2023-03-03T12:09:18;96435.16;;;16.36;27.04
60874;BME280;46715;40.642;-7.920;2023-03-03T12:16:12;96454.16;;;16.79;28.25
60874;BME280;46715;40.642;-7.920;2023-03-03T12:22:41;96429.25;;;17.25;27.38
60874;BME280;46715;40.642;-7.920;2023-03-03T12:27:38;96427.56;;;16.89;26.46
60874;BME280;46715;40.642;-7.920;2023-03-03T12:32:26;96431.81;;;16.45;26.99
60874;BME280;46715;40.642;-7.920;2023-03-03T12:34:44;96432.69;;;16.63;27.11
60874;BME280;46715;40.642;-7.920;2023-03-03T12:37:11;96433.22;;;16.74;27.31
60874;BME280;46715;40.642;-7.920;2023-03-03T12:42:05;96421.72;;;16.38;27.82
60874;BME280;46715;40.642;-7.920;2023-03-03T12:51:08;96401.91;;;15.31;29.61
60874;BME280;46715;40.642;-7.920;2023-03-03T12:58:18;96394.31;;;15.94;28.06
60874;BME280;46715;40.642;-7.920;2023-03-03T13:00:26;96386.38;;;16.08;28.30
60874;BME280;46715;40.642;-7.920;2023-03-03T13:02:38;96383.81;;;16.16;27.78
60874;BME280;46715;40.642;-7.920;2023-03-03T13:07:26;96384.94;;;16.56;27.90
60874;BME280;46715;40.642;-7.920;2023-03-03T13:14:56;96372.09;;;16.00;28.65
60874;BME280;46715;40.642;-7.920;2023-03-03T13:19:26;96370.59;;;16.62;27.60
60874;BME280;46715;40.642;-7.920;2023-03-03T13:21:39;96366.63;;;16.82;28.58
60874;BME280;46715;40.642;-7.920;2023-03-03T13:28:40;96357.91;;;17.04;28.25
60874;BME280;46715;40.642;-7.920;2023-03-03T13:30:47;96361.03;;;17.06;29.57
60874;BME280;46715;40.642;-7.920;2023-03-03T13:35:01;96363.38;;;17.25;28.56
60874;BME280;46715;40.642;-7.920;2023-03-03T13:37:20;96348.06;;;17.36;28.69
60874;BME280;46715;40.642;-7.920;2023-03-03T13:39:29;96348.38;;;17.43;28.76